sensor_id;sensor_type;location;lat;lon;timestamp;pressure;altitude;pressure_sealevel;temperature;humidity
13478;BME280;12598;62.382;17.344;2023-05-09T00:00:02;101964.63;;;21.17;21.79
13478;BME280;12598;62.382;17.344;2023-05-09T00:01:11;101965.47;;;21.17;21.79
13478;BME280;12598;62.382;17.344;2023-05-09T00:02:13;101964.34;;;21.20;22.05
13478;BME280;12598;62.382;17.344;2023-05-09T00:03:15;101966.31;;;21.18;22.26
13478;BME280;12598;62.382;17.344;2023-05-09T00:04:17;101967.31;;;21.17;22.16
13478;BME280;12598;62.382;17.344;2023-05-09T00:05:20;101970.00;;;21.17;22.16
13478;BME280;12598;62.382;17.344;2023-05-09T00:06:22;101959.66;;;21.12;22.18
13478;BME280;12598;62.382;17.344;2023-05-09T00:07:24;101963.91;;;21.15;22.12
13478;BME280;12598;62.382;17.344;2023-05-09T00:08:26;101951.44;;;21.14;21.91
13478;BME280;12598;62.382;17.344;2023-05-09T00:09:28;101962.19;;;21.14;21.84
13478;BME280;12598;62.382;17.344;2023-05-09T00:10:30;101962.19;;;21.14;22.50
13478;BME280;12598;62.382;17.344;2023-05-09T00:11:32;101961.38;;;21.13;22.12
13478;BME280;12598;62.382;17.344;2023-05-09T00:12:34;101963.19;;;21.13;22.51
13478;BME280;12598;62.382;17.344;2023-05-09T00:13:36;101962.38;;;21.12;22.30
13478;BME280;12598;62.382;17.344;2023-05-09T00:14:38;101957.09;;;21.11;22.31
13478;BME280;12598;62.382;17.344;2023-05-09T00:15:41;101963.34;;;21.11;22.22
13478;BME280;12598;62.382;17.344;2023-05-09T00:16:45;101960.78;;;21.10;22.25
13478;BME280;12598;62.382;17.344;2023-05-09T00:17:47;101962.50;;;21.11;22.37
13478;BME280;12598;62.382;17.344;2023-05-09T00:18:51;101959.78;;;21.11;22.37
13478;BME280;12598;62.382;17.344;2023-05-09T00:19:53;101953.72;;;21.09;21.90
13478;BME280;12598;62.382;17.344;2023-05-09T00:20:55;101955.41;;;21.10;22.38
13478;BME280;12598;62.382;17.344;2023-05-09T00:21:58;101955.41;;;21.10;21.84
13478;BME280;12598;62.382;17.344;2023-05-09T00:23:00;101952.88;;;21.08;22.17
13478;BME280;12598;62.382;17.344;2023-05-09T00:24:01;101955.69;;;21.07;22.28
13478;BME280;12598;62.382;17.344;2023-05-09T00:25:04;101961.94;;;21.07;22.06
13478;BME280;12598;62.382;17.344;2023-05-09T00:26:08;101953.88;;;21.07;21.96
13478;BME280;12598;62.382;17.344;2023-05-09T00:27:10;101952.00;;;21.08;21.77
13478;BME280;12598;62.382;17.344;2023-05-09T00:28:12;101957.38;;;21.08;22.15
13478;BME280;12598;62.382;17.344;2023-05-09T00:29:13;101950.31;;;21.07;22.57
13478;BME280;12598;62.382;17.344;2023-05-09T00:30:16;101961.06;;;21.07;22.28
13478;BME280;12598;62.382;17.344;2023-05-09T00:31:19;101950.59;;;21.04;22.12
13478;BME280;12598;62.382;17.344;2023-05-09T00:32:21;101946.91;;;21.05;21.97
13478;BME280;12598;62.382;17.344;2023-05-09T00:33:23;101952.28;;;21.05;22.08
13478;BME280;12598;62.382;17.344;2023-05-09T00:34:27;101938.13;;;21.03;22.18
13478;BME280;12598;62.382;17.344;2023-05-09T00:35:29;101950.59;;;21.04;21.76
13478;BME280;12598;62.382;17.344;2023-05-09T00:36:32;101939.81;;;21.04;21.76
13478;BME280;12598;62.382;17.344;2023-05-09T00:37:34;101954.25;;;21.03;22.30
13478;BME280;12598;62.382;17.344;2023-05-09T00:38:36;101948.03;;;21.02;22.32
13478;BME280;12598;62.382;17.344;2023-05-09T00:39:38;101940.38;;;20.98;22.27
13478;BME280;12598;62.382;17.344;2023-05-09T00:40:40;101948.03;;;21.02;22.39
13478;BME280;12598;62.382;17.344;2023-05-09T00:41:42;101944.50;;;21.02;21.97
13478;BME280;12598;62.382;17.344;2023-05-09T00:42:44;101940.09;;;21.01;21.99
13478;BME280;12598;62.382;17.344;2023-05-09T00:43:46;101956.25;;;21.01;22.48
13478;BME280;12598;62.382;17.344;2023-05-09T00:44:48;101952.56;;;21.02;22.47
13478;BME280;12598;62.382;17.344;2023-05-09T00:45:50;101950.88;;;21.01;22.27
13478;BME280;12598;62.382;17.344;2023-05-09T00:46:52;101946.59;;;20.98;22.30
13478;BME280;12598;62.382;17.344;2023-05-09T00:47:54;101951.13;;;20.98;22.45
13478;BME280;12598;62.382;17.344;2023-05-09T00:48:56;101946.03;;;20.95;22.34
13478;BME280;12598;62.382;17.344;2023-05-09T00:49:58;101953.84;;;20.98;22.38
13478;BME280;12598;62.382;17.344;2023-05-09T00:51:01;101952.13;;;20.97;22.31
13478;BME280;12598;62.382;17.344;2023-05-09T00:52:04;101950.44;;;20.96;22.26
13478;BME280;12598;62.382;17.344;2023-05-09T00:53:06;101946.75;;;20.97;22.02
13478;BME280;12598;62.382;17.344;2023-05-09T00:54:08;101949.44;;;20.97;22.40
13478;BME280;12598;62.382;17.344;2023-05-09T00:55:11;101946.03;;;20.95;22.39
13478;BME280;12598;62.382;17.344;2023-05-09T00:56:14;101944.19;;;20.95;22.63
13478;BME280;12598;62.382;17.344;2023-05-09T00:57:16;101950.44;;;20.96;22.41
13478;BME280;12598;62.382;17.344;2023-05-09T00:58:18;101947.75;;;20.96;21.77
13478;BME280;12598;62.382;17.344;2023-05-09T00:59:20;101940.66;;;20.95;22.02
13478;BME280;12598;62.382;17.344;2023-05-09T01:00:22;101942.47;;;20.94;22.21
13478;BME280;12598;62.382;17.344;2023-05-09T01:01:24;101943.47;;;20.93;22.60
13478;BME280;12598;62.382;17.344;2023-05-09T01:02:26;101949.00;;;20.92;22.69
13478;BME280;12598;62.382;17.344;2023-05-09T01:03:29;101948.03;;;20.93;22.40
13478;BME280;12598;62.382;17.344;2023-05-09T01:04:32;101942.63;;;20.93;22.15
13478;BME280;12598;62.382;17.344;2023-05-09T01:05:43;101930.59;;;20.88;22.30
13478;BME280;12598;62.382;17.344;2023-05-09T01:07:01;101937.69;;;20.98;22.19
13478;BME280;12598;62.382;17.344;2023-05-09T01:08:42;101933.34;;;21.06;22.54
13478;BME280;12598;62.382;17.344;2023-05-09T01:10:54;101932.78;;;21.12;22.08
13478;BME280;12598;62.382;17.344;2023-05-09T01:15:11;101940.97;;;21.11;22.50
13478;BME280;12598;62.382;17.344;2023-05-09T01:16:28;101936.84;;;21.07;22.16
13478;BME280;12598;62.382;17.344;2023-05-09T01:17:48;101940.81;;;21.03;22.34
13478;BME280;12598;62.382;17.344;2023-05-09T01:19:16;101925.94;;;20.99;22.52
13478;BME280;12598;62.382;17.344;2023-05-09T01:20:33;101928.34;;;21.02;22.57
13478;BME280;12598;62.382;17.344;2023-05-09T01:21:39;101927.78;;;20.98;22.03
13478;BME280;12598;62.382;17.344;2023-05-09T01:22:47;101929.91;;;20.95;22.65
13478;BME280;12598;62.382;17.344;2023-05-09T01:24:21;101926.50;;;20.93;22.67
13478;BME280;12598;62.382;17.344;2023-05-09T01:25:53;101931.06;;;21.02;22.76
13478;BME280;12598;62.382;17.344;2023-05-09T01:27:14;101923.97;;;21.01;22.42
13478;BME280;12598;62.382;17.344;2023-05-09T01:30:02;101925.94;;;20.99;22.63
13478;BME280;12598;62.382;17.344;2023-05-09T01:31:05;101922.13;;;20.92;22.77
13478;BME280;12598;62.382;17.344;2023-05-09T01:32:13;101923.38;;;20.88;22.53
13478;BME280;12598;62.382;17.344;2023-05-09T01:33:18;101920.81;;;20.87;23.16
13478;BME280;12598;62.382;17.344;2023-05-09T01:34:23;101927.34;;;20.84;23.11
13478;BME280;12598;62.382;17.344;2023-05-09T01:35:29;101912.69;;;20.77;23.00
13478;BME280;12598;62.382;17.344;2023-05-09T01:36:33;101913.16;;;20.82;22.60
13478;BME280;12598;62.382;17.344;2023-05-09T01:37:40;101923.91;;;20.82;23.03
13478;BME280;12598;62.382;17.344;2023-05-09T01:38:47;101912.56;;;20.79;22.94
13478;BME280;12598;62.382;17.344;2023-05-09T01:39:52;101913.16;;;20.82;23.02
13478;BME280;12598;62.382;17.344;2023-05-09T01:40:57;101913.16;;;20.82;22.65
13478;BME280;12598;62.382;17.344;2023-05-09T01:42:01;101901.94;;;20.77;22.88
13478;BME280;12598;62.382;17.344;2023-05-09T01:43:06;101915.25;;;20.79;22.89
13478;BME280;12598;62.382;17.344;2023-05-09T01:44:10;101913.66;;;20.76;22.99
13478;BME280;12598;62.382;17.344;2023-05-09T01:45:14;101913.66;;;20.76;23.25
13478;BME280;12598;62.382;17.344;2023-05-09T01:46:18;101919.75;;;20.78;23.07
13478;BME280;12598;62.382;17.344;2023-05-09T01:47:21;101910.28;;;20.74;22.98
13478;BME280;12598;62.382;17.344;2023-05-09T01:48:24;101914.53;;;20.77;23.39
13478;BME280;12598;62.382;17.344;2023-05-09T01:49:29;101902.91;;;20.76;23.01
13478;BME280;12598;62.382;17.344;2023-05-09T01:50:34;101909.16;;;20.77;23.52
13478;BME280;12598;62.382;17.344;2023-05-09T01:51:37;101908.28;;;20.76;23.26
13478;BME280;12598;62.382;17.344;2023-05-09T01:52:43;101899.81;;;20.71;23.34
13478;BME280;12598;62.382;17.344;2023-05-09T01:53:50;101912.69;;;20.77;23.38
13478;BME280;12598;62.382;17.344;2023-05-09T01:54:53;101918.06;;;20.77;23.45
13478;BME280;12598;62.382;17.344;2023-05-09T01:55:57;101909.28;;;20.75;22.91
13478;BME280;12598;62.382;17.344;2023-05-09T01:57:00;101913.66;;;20.76;23.51
13478;BME280;12598;62.382;17.344;2023-05-09T01:58:04;101902.75;;;20.68;23.43
13478;BME280;12598;62.382;17.344;2023-05-09T01:59:06;101912.84;;;20.76;23.60
13478;BME280;12598;62.382;17.344;2023-05-09T02:00:10;101899.53;;;20.74;23.08
13478;BME280;12598;62.382;17.344;2023-05-09T02:01:14;101895.28;;;20.72;23.40
13478;BME280;12598;62.382;17.344;2023-05-09T02:02:16;101900.38;;;20.75;23.34
13478;BME280;12598;62.382;17.344;2023-05-09T02:03:19;101895.28;;;20.72;23.18
13478;BME280;12598;62.382;17.344;2023-05-09T02:04:23;101897.81;;;20.73;23.33
13478;BME280;12598;62.382;17.344;2023-05-09T02:05:27;101907.75;;;20.73;23.18
13478;BME280;12598;62.382;17.344;2023-05-09T02:06:30;101896.84;;;20.74;23.29
13478;BME280;12598;62.382;17.344;2023-05-09T02:07:33;101890.75;;;20.72;23.19
13478;BME280;12598;62.382;17.344;2023-05-09T02:08:35;101896.84;;;20.74;23.36
13478;BME280;12598;62.382;17.344;2023-05-09T02:09:37;101897.81;;;20.73;23.63
13478;BME280;12598;62.382;17.344;2023-05-09T02:10:39;101896.13;;;20.72;23.65
13478;BME280;12598;62.382;17.344;2023-05-09T02:11:42;101878.25;;;20.62;23.64
13478;BME280;12598;62.382;17.344;2023-05-09T02:12:44;101899.09;;;20.69;23.66
13478;BME280;12598;62.382;17.344;2023-05-09T02:13:46;101887.06;;;20.64;23.52
13478;BME280;12598;62.382;17.344;2023-05-09T02:14:48;101889.19;;;20.70;23.33
13478;BME280;12598;62.382;17.344;2023-05-09T02:15:50;101894.41;;;20.71;23.25
13478;BME280;12598;62.382;17.344;2023-05-09T02:16:52;101888.22;;;20.71;23.28
13478;BME280;12598;62.382;17.344;2023-05-09T02:17:55;101880.28;;;20.69;23.31
13478;BME280;12598;62.382;17.344;2023-05-09T02:18:57;101887.34;;;20.70;23.65
13478;BME280;12598;62.382;17.344;2023-05-09T02:19:59;101881.97;;;20.70;23.80
13478;BME280;12598;62.382;17.344;2023-05-09T02:21:02;101876.59;;;20.70;23.69
13478;BME280;12598;62.382;17.344;2023-05-09T02:22:04;101882.84;;;20.71;24.01
13478;BME280;12598;62.382;17.344;2023-05-09T02:23:06;101879.28;;;20.70;23.25
13478;BME280;12598;62.382;17.344;2023-05-09T02:24:08;101884.66;;;20.70;23.15
13478;BME280;12598;62.382;17.344;2023-05-09T02:25:11;101878.56;;;20.68;23.88
13478;BME280;12598;62.382;17.344;2023-05-09T02:26:17;101872.91;;;20.71;23.86
13478;BME280;12598;62.382;17.344;2023-05-09T02:27:20;101880.16;;;20.71;23.71
13478;BME280;12598;62.382;17.344;2023-05-09T02:28:24;101867.38;;;20.63;23.65
13478;BME280;12598;62.382;17.344;2023-05-09T02:29:38;101876.59;;;20.70;23.64
13478;BME280;12598;62.382;17.344;2023-05-09T02:30:43;101866.56;;;20.72;23.73
13478;BME280;12598;62.382;17.344;2023-05-09T02:31:47;101857.63;;;20.62;23.34
13478;BME280;12598;62.382;17.344;2023-05-09T02:32:54;101874.78;;;20.71;23.70
13478;BME280;12598;62.382;17.344;2023-05-09T02:33:58;101880.97;;;20.71;23.45
13478;BME280;12598;62.382;17.344;2023-05-09T02:35:01;101882.84;;;20.71;23.51
13478;BME280;12598;62.382;17.344;2023-05-09T02:36:05;101882.84;;;20.71;23.88
13478;BME280;12598;62.382;17.344;2023-05-09T02:37:07;101881.97;;;20.70;23.49
13478;BME280;12598;62.382;17.344;2023-05-09T02:38:11;101866.41;;;20.64;23.55
13478;BME280;12598;62.382;17.344;2023-05-09T02:39:14;101870.50;;;20.68;23.56
13478;BME280;12598;62.382;17.344;2023-05-09T02:40:17;101885.66;;;20.69;23.56
13478;BME280;12598;62.382;17.344;2023-05-09T02:41:19;101874.91;;;20.69;23.55
13478;BME280;12598;62.382;17.344;2023-05-09T02:42:23;101875.88;;;20.68;23.57
13478;BME280;12598;62.382;17.344;2023-05-09T02:43:26;101872.38;;;20.68;24.06
13478;BME280;12598;62.382;17.344;2023-05-09T02:44:28;101875.88;;;20.68;23.63
13478;BME280;12598;62.382;17.344;2023-05-09T02:45:30;101870.50;;;20.68;23.66
13478;BME280;12598;62.382;17.344;2023-05-09T02:46:32;101870.66;;;20.67;23.86
13478;BME280;12598;62.382;17.344;2023-05-09T02:47:34;101867.97;;;20.67;23.61
13478;BME280;12598;62.382;17.344;2023-05-09T02:48:36;101872.47;;;20.66;23.56
13478;BME280;12598;62.382;17.344;2023-05-09T02:49:38;101872.47;;;20.66;23.87
13478;BME280;12598;62.382;17.344;2023-05-09T02:50:40;101870.66;;;20.67;23.72
13478;BME280;12598;62.382;17.344;2023-05-09T02:51:43;101874.34;;;20.66;24.11
13478;BME280;12598;62.382;17.344;2023-05-09T02:52:45;101872.47;;;20.66;24.12
13478;BME280;12598;62.382;17.344;2023-05-09T02:53:47;101870.66;;;20.67;24.01
13478;BME280;12598;62.382;17.344;2023-05-09T02:54:49;101874.34;;;20.66;23.51
13478;BME280;12598;62.382;17.344;2023-05-09T02:55:51;101873.34;;;20.67;23.97
13478;BME280;12598;62.382;17.344;2023-05-09T02:56:54;101867.97;;;20.67;24.00
13478;BME280;12598;62.382;17.344;2023-05-09T02:57:56;101862.72;;;20.65;24.01
13478;BME280;12598;62.382;17.344;2023-05-09T02:59:17;101864.84;;;20.71;23.82
13478;BME280;12598;62.382;17.344;2023-05-09T03:00:19;101865.00;;;20.70;23.54
13478;BME280;12598;62.382;17.344;2023-05-09T03:01:22;101866.84;;;20.69;23.53
13478;BME280;12598;62.382;17.344;2023-05-09T03:02:24;101866.13;;;20.67;24.21
13478;BME280;12598;62.382;17.344;2023-05-09T03:03:27;101866.84;;;20.69;23.58
13478;BME280;12598;62.382;17.344;2023-05-09T03:04:30;101842.06;;;20.56;23.73
13478;BME280;12598;62.382;17.344;2023-05-09T03:05:32;101863.31;;;20.69;23.64
13478;BME280;12598;62.382;17.344;2023-05-09T03:06:35;101857.22;;;20.67;23.79
13478;BME280;12598;62.382;17.344;2023-05-09T03:07:37;101862.44;;;20.68;23.96
13478;BME280;12598;62.382;17.344;2023-05-09T03:08:39;101856.34;;;20.66;23.92
13478;BME280;12598;62.382;17.344;2023-05-09T03:09:42;101859.91;;;20.67;23.46
13478;BME280;12598;62.382;17.344;2023-05-09T03:10:44;101853.66;;;20.66;23.91
13478;BME280;12598;62.382;17.344;2023-05-09T03:11:47;101856.34;;;20.66;23.59
13478;BME280;12598;62.382;17.344;2023-05-09T03:12:48;101852.84;;;20.66;24.09
13478;BME280;12598;62.382;17.344;2023-05-09T03:13:50;101851.84;;;20.67;23.32
13478;BME280;12598;62.382;17.344;2023-05-09T03:14:52;101861.59;;;20.68;24.03
13478;BME280;12598;62.382;17.344;2023-05-09T03:15:54;101853.66;;;20.66;24.05
13478;BME280;12598;62.382;17.344;2023-05-09T03:16:56;101850.97;;;20.66;23.94
13478;BME280;12598;62.382;17.344;2023-05-09T03:18:03;101858.75;;;20.69;23.99
13478;BME280;12598;62.382;17.344;2023-05-09T03:19:05;101858.06;;;20.67;23.70
13478;BME280;12598;62.382;17.344;2023-05-09T03:20:07;101852.56;;;20.69;23.80
13478;BME280;12598;62.382;17.344;2023-05-09T03:21:11;101856.94;;;20.70;23.92
13478;BME280;12598;62.382;17.344;2023-05-09T03:22:14;101861.47;;;20.69;24.05
13478;BME280;12598;62.382;17.344;2023-05-09T03:23:33;101858.22;;;20.75;23.77
13478;BME280;12598;62.382;17.344;2023-05-09T03:24:36;101849.44;;;20.73;23.90
13478;BME280;12598;62.382;17.344;2023-05-09T03:25:38;101849.44;;;20.73;23.77
13478;BME280;12598;62.382;17.344;2023-05-09T03:26:40;101846.91;;;20.72;23.80
13478;BME280;12598;62.382;17.344;2023-05-09T03:27:41;101853.28;;;20.71;23.27
13478;BME280;12598;62.382;17.344;2023-05-09T03:28:47;101850.44;;;20.72;23.52
13478;BME280;12598;62.382;17.344;2023-05-09T03:29:49;101840.66;;;20.71;23.50
13478;BME280;12598;62.382;17.344;2023-05-09T03:30:52;101851.28;;;20.73;23.43
13478;BME280;12598;62.382;17.344;2023-05-09T03:31:58;101844.06;;;20.73;23.48
13478;BME280;12598;62.382;17.344;2023-05-09T03:32:59;101838.84;;;20.72;23.95
13478;BME280;12598;62.382;17.344;2023-05-09T03:34:01;101841.38;;;20.73;23.50
13478;BME280;12598;62.382;17.344;2023-05-09T03:35:03;101843.22;;;20.73;23.36
13478;BME280;12598;62.382;17.344;2023-05-09T03:36:06;101846.63;;;20.75;23.63
13478;BME280;12598;62.382;17.344;2023-05-09T03:37:09;101832.47;;;20.73;23.47
13478;BME280;12598;62.382;17.344;2023-05-09T03:38:13;101841.09;;;20.76;23.46
13478;BME280;12598;62.382;17.344;2023-05-09T03:39:15;101838.41;;;20.76;23.41
13478;BME280;12598;62.382;17.344;2023-05-09T03:40:20;101840.09;;;20.77;23.38
13478;BME280;12598;62.382;17.344;2023-05-09T03:41:36;101828.91;;;20.72;23.65
13478;BME280;12598;62.382;17.344;2023-05-09T03:42:39;101837.88;;;20.82;23.89
13478;BME280;12598;62.382;17.344;2023-05-09T03:43:41;101840.69;;;20.81;23.34
13478;BME280;12598;62.382;17.344;2023-05-09T03:44:42;101838.84;;;20.81;23.15
13478;BME280;12598;62.382;17.344;2023-05-09T03:45:44;101838.84;;;20.81;23.77
13478;BME280;12598;62.382;17.344;2023-05-09T03:46:48;101843.25;;;20.82;23.37
13478;BME280;12598;62.382;17.344;2023-05-09T03:47:50;101837.88;;;20.82;23.50
13478;BME280;12598;62.382;17.344;2023-05-09T03:48:52;101834.19;;;20.83;23.91
13478;BME280;12598;62.382;17.344;2023-05-09T03:49:54;101834.19;;;20.83;24.04
13478;BME280;12598;62.382;17.344;2023-05-09T03:50:57;101835.94;;;20.84;23.92
13478;BME280;12598;62.382;17.344;2023-05-09T03:52:02;101818.88;;;20.74;23.63
13478;BME280;12598;62.382;17.344;2023-05-09T03:53:04;101834.78;;;20.87;23.60
13478;BME280;12598;62.382;17.344;2023-05-09T03:54:10;101838.34;;;20.87;23.86
13478;BME280;12598;62.382;17.344;2023-05-09T03:55:13;101845.25;;;20.90;23.53
13478;BME280;12598;62.382;17.344;2023-05-09T03:56:15;101837.34;;;20.88;23.58
13478;BME280;12598;62.382;17.344;2023-05-09T03:57:23;101830.00;;;20.90;23.91
13478;BME280;12598;62.382;17.344;2023-05-09T03:58:27;101837.06;;;20.91;23.84
13478;BME280;12598;62.382;17.344;2023-05-09T03:59:29;101828.41;;;20.88;23.82
13478;BME280;12598;62.382;17.344;2023-05-09T04:00:31;101837.06;;;20.91;24.07
13478;BME280;12598;62.382;17.344;2023-05-09T04:01:41;101832.41;;;20.93;23.76
13478;BME280;12598;62.382;17.344;2023-05-09T04:02:43;101829.72;;;20.93;23.89
13478;BME280;12598;62.382;17.344;2023-05-09T04:03:54;101834.81;;;20.96;23.60
13478;BME280;12598;62.382;17.344;2023-05-09T04:04:59;101827.72;;;20.95;24.07
13478;BME280;12598;62.382;17.344;2023-05-09T04:06:01;101828.56;;;20.95;23.65
13478;BME280;12598;62.382;17.344;2023-05-09T04:07:08;101826.72;;;20.96;23.49
13478;BME280;12598;62.382;17.344;2023-05-09T04:08:10;101828.56;;;20.95;23.90
13478;BME280;12598;62.382;17.344;2023-05-09T04:09:12;101826.84;;;20.94;23.75
13478;BME280;12598;62.382;17.344;2023-05-09T04:10:15;101811.56;;;20.86;23.31
13478;BME280;12598;62.382;17.344;2023-05-09T04:11:18;101824.03;;;20.96;23.85
13478;BME280;12598;62.382;17.344;2023-05-09T04:12:21;101831.13;;;20.97;23.39
13478;BME280;12598;62.382;17.344;2023-05-09T04:13:24;101832.81;;;20.98;23.69
13478;BME280;12598;62.382;17.344;2023-05-09T04:14:26;101828.28;;;20.98;23.33
13478;BME280;12598;62.382;17.344;2023-05-09T04:15:28;101830.97;;;20.98;23.06
13478;BME280;12598;62.382;17.344;2023-05-09T04:16:32;101813.56;;;20.93;23.56
13478;BME280;12598;62.382;17.344;2023-05-09T04:17:34;101829.13;;;20.99;23.39
13478;BME280;12598;62.382;17.344;2023-05-09T04:18:35;101824.47;;;21.01;23.75
13478;BME280;12598;62.382;17.344;2023-05-09T04:19:40;101833.38;;;21.01;23.87
13478;BME280;12598;62.382;17.344;2023-05-09T04:20:42;101827.00;;;21.02;23.77
13478;BME280;12598;62.382;17.344;2023-05-09T04:21:44;101826.00;;;21.03;23.67
13478;BME280;12598;62.382;17.344;2023-05-09T04:22:46;101822.47;;;21.03;23.26
13478;BME280;12598;62.382;17.344;2023-05-09T04:23:49;101827.72;;;21.04;23.90
13478;BME280;12598;62.382;17.344;2023-05-09T04:24:57;101829.28;;;21.07;23.27
13478;BME280;12598;62.382;17.344;2023-05-09T04:25:58;101826.59;;;21.07;23.56
13478;BME280;12598;62.382;17.344;2023-05-09T04:27:01;101830.28;;;21.06;23.23
13478;BME280;12598;62.382;17.344;2023-05-09T04:28:03;101825.75;;;21.06;23.24
13478;BME280;12598;62.382;17.344;2023-05-09T04:29:05;101826.88;;;21.04;23.39
13478;BME280;12598;62.382;17.344;2023-05-09T04:30:08;101826.59;;;21.07;23.66
13478;BME280;12598;62.382;17.344;2023-05-09T04:31:10;101824.59;;;21.09;23.74
13478;BME280;12598;62.382;17.344;2023-05-09T04:32:18;101826.31;;;21.10;23.20
13478;BME280;12598;62.382;17.344;2023-05-09T04:33:21;101828.00;;;21.11;23.50
13478;BME280;12598;62.382;17.344;2023-05-09T04:34:25;101829.00;;;21.10;23.30
13478;BME280;12598;62.382;17.344;2023-05-09T04:35:29;101822.50;;;21.12;23.63
13478;BME280;12598;62.382;17.344;2023-05-09T04:36:31;101831.41;;;21.13;23.15
13478;BME280;12598;62.382;17.344;2023-05-09T04:37:34;101829.69;;;21.12;23.80
13478;BME280;12598;62.382;17.344;2023-05-09T04:38:36;101820.63;;;21.13;23.52
13478;BME280;12598;62.382;17.344;2023-05-09T04:39:43;101827.72;;;21.14;23.24
13478;BME280;12598;62.382;17.344;2023-05-09T04:40:53;101832.81;;;21.17;23.37
13478;BME280;12598;62.382;17.344;2023-05-09T04:41:55;101828.41;;;21.16;23.13
13478;BME280;12598;62.382;17.344;2023-05-09T04:42:57;101830.28;;;21.15;23.21
13478;BME280;12598;62.382;17.344;2023-05-09T04:44:02;101829.41;;;21.15;23.24
13478;BME280;12598;62.382;17.344;2023-05-09T04:45:04;101824.91;;;21.15;23.04
13478;BME280;12598;62.382;17.344;2023-05-09T04:46:06;101825.72;;;21.16;23.83
13478;BME280;12598;62.382;17.344;2023-05-09T04:47:09;101825.72;;;21.16;23.45
13478;BME280;12598;62.382;17.344;2023-05-09T04:48:11;101820.34;;;21.16;23.22
13478;BME280;12598;62.382;17.344;2023-05-09T04:49:13;101824.75;;;21.17;23.62
13478;BME280;12598;62.382;17.344;2023-05-09T04:50:15;101828.28;;;21.17;23.69
13478;BME280;12598;62.382;17.344;2023-05-09T04:51:17;101827.31;;;21.18;23.59
13478;BME280;12598;62.382;17.344;2023-05-09T04:52:19;101823.75;;;21.18;23.42
13478;BME280;12598;62.382;17.344;2023-05-09T04:53:21;101826.31;;;21.19;23.25
13478;BME280;12598;62.382;17.344;2023-05-09T04:54:23;101821.75;;;21.20;23.75
13478;BME280;12598;62.382;17.344;2023-05-09T04:55:27;101813.56;;;21.21;23.52
13478;BME280;12598;62.382;17.344;2023-05-09T04:56:30;101822.47;;;21.22;23.36
13478;BME280;12598;62.382;17.344;2023-05-09T04:57:33;101817.09;;;21.22;23.56
13478;BME280;12598;62.382;17.344;2023-05-09T04:58:37;101820.66;;;21.22;23.21
13478;BME280;12598;62.382;17.344;2023-05-09T04:59:43;101812.41;;;21.24;23.63
13478;BME280;12598;62.382;17.344;2023-05-09T05:00:47;101817.78;;;21.24;22.85
13478;BME280;12598;62.382;17.344;2023-05-09T05:01:51;101819.50;;;21.25;23.52
13478;BME280;12598;62.382;17.344;2023-05-09T05:02:54;101824.88;;;21.25;23.27
13478;BME280;12598;62.382;17.344;2023-05-09T05:03:58;101822.91;;;21.27;23.10
13478;BME280;12598;62.382;17.344;2023-05-09T05:05:01;101823.06;;;21.25;23.58
13478;BME280;12598;62.382;17.344;2023-05-09T05:06:14;101820.94;;;21.29;23.02
13478;BME280;12598;62.382;17.344;2023-05-09T05:07:16;101819.25;;;21.28;23.56
13478;BME280;12598;62.382;17.344;2023-05-09T05:08:19;101819.25;;;21.28;22.81
13478;BME280;12598;62.382;17.344;2023-05-09T05:09:22;101820.94;;;21.29;23.26
13478;BME280;12598;62.382;17.344;2023-05-09T05:10:24;101820.78;;;21.30;22.57
13478;BME280;12598;62.382;17.344;2023-05-09T05:11:35;101821.34;;;21.34;23.30
13478;BME280;12598;62.382;17.344;2023-05-09T05:12:38;101824.75;;;21.36;22.94
13478;BME280;12598;62.382;17.344;2023-05-09T05:13:44;101819.19;;;21.37;23.20
13478;BME280;12598;62.382;17.344;2023-05-09T05:14:46;101825.28;;;21.39;23.35
13478;BME280;12598;62.382;17.344;2023-05-09T05:15:52;101834.78;;;21.43;22.57
13478;BME280;12598;62.382;17.344;2023-05-09T05:16:55;101821.19;;;21.45;22.70
13478;BME280;12598;62.382;17.344;2023-05-09T05:17:57;101832.53;;;21.48;22.99
13478;BME280;12598;62.382;17.344;2023-05-09T05:19:03;101819.63;;;21.52;22.88
13478;BME280;12598;62.382;17.344;2023-05-09T05:20:10;101819.19;;;21.56;22.57
13478;BME280;12598;62.382;17.344;2023-05-09T05:21:16;101825.13;;;21.60;22.92
13478;BME280;12598;62.382;17.344;2023-05-09T05:22:19;101818.66;;;21.62;22.53
13478;BME280;12598;62.382;17.344;2023-05-09T05:23:20;101821.03;;;21.65;22.33
13478;BME280;12598;62.382;17.344;2023-05-09T05:24:26;101808.97;;;21.69;22.72
13478;BME280;12598;62.382;17.344;2023-05-09T05:25:29;101809.56;;;21.73;22.20
13478;BME280;12598;62.382;17.344;2023-05-09T05:26:33;101816.34;;;21.77;22.50
13478;BME280;12598;62.382;17.344;2023-05-09T05:27:35;101808.81;;;21.80;22.00
13478;BME280;12598;62.382;17.344;2023-05-09T05:28:37;101815.59;;;21.84;22.40
13478;BME280;12598;62.382;17.344;2023-05-09T05:29:40;101810.91;;;21.86;22.28
13478;BME280;12598;62.382;17.344;2023-05-09T05:30:42;101807.78;;;21.91;21.96
13478;BME280;12598;62.382;17.344;2023-05-09T05:31:43;101811.88;;;21.95;21.63
13478;BME280;12598;62.382;17.344;2023-05-09T05:32:45;101806.06;;;21.99;21.96
13478;BME280;12598;62.382;17.344;2023-05-09T05:33:50;101807.28;;;22.05;21.86
13478;BME280;12598;62.382;17.344;2023-05-09T05:34:53;101808.00;;;22.07;21.58
13478;BME280;12598;62.382;17.344;2023-05-09T05:35:56;101809.38;;;22.11;22.14